Guilderland Center, New York
Current Conditions -  °F | °C
As of 9:51 PM on Friday 21 Nov 2014 (Local Time) from KALB Reporting Station
Few Clouds Few Clouds  
Wind Chill: 11°   Ceiling: Unl
Heat Index: 19°   Visibility: 10mi
Dew Point: 10°   Wind: 6mph
Humidity: 68%   Direction: 220°SW
Pressure: 30.43"   Gusts: NA
Location:  42.7°N, 73.97°W
Report Text: KALB 220251Z 22005KT 10SM FEW048 M07/M12 A3043 RMK AO2 SLP310 T10721122 58002
Loading
Personal Weather Stations






























Interactive Weather Map New forecast layout! Learn more

10-Day Weather Forecast

Advertisements
Track Severe Weather on mobile